Time;durP1;ratioP1;P1;durP2;ratioP2;P2;SDS_P1;SDS_P2;PMS_P1;PMS_P2;Temp;Humidity;BMP_temperature;BMP_pressure;BME280_temperature;BME280_humidity;BME280_pressure;Samples;Min_cycle;Max_cycle;Signal;HPM_P1;HPM_P2
2023/03/27 00:00:27;;;;;;;;;8.67;7.00;;;;;9.85;51.49;101270.66;5043120;28;45716;-74
2023/03/27 00:02:53;;;;;;;;;3.33;2.33;;;;;9.66;51.18;101262.50;5055910;28;45273;-73
2023/03/27 00:05:19;;;;;;;;;2.00;2.00;;;;;9.42;50.98;101247.63;5038805;28;45359;-72
2023/03/27 00:07:49;;;;;;;;;1.00;1.00;;;;;9.66;50.66;101281.09;5049653;28;45538;-74
2023/03/27 00:10:15;;;;;;;;;2.00;2.00;;;;;9.61;50.22;101291.22;5040191;28;48067;-73
2023/03/27 00:12:43;;;;;;;;;4.00;3.00;;;;;9.52;50.67;101286.66;5041720;28;45555;-73
2023/03/27 00:15:14;;;;;;;;;1.67;1.67;;;;;9.61;49.72;101317.75;5037207;28;45626;-77
2023/03/27 00:17:40;;;;;;;;;2.00;1.00;;;;;9.44;50.22;101327.94;5055447;28;45369;-73
2023/03/27 00:20:05;;;;;;;;;2.00;2.00;;;;;9.44;50.14;101343.88;5049591;28;46886;-73
2023/03/27 00:22:31;;;;;;;;;0.00;0.00;;;;;9.49;50.75;101343.50;5042244;28;45211;-73
2023/03/27 00:24:56;;;;;;;;;1.00;1.00;;;;;9.61;50.48;101349.63;5047714;28;45655;-73
2023/03/27 00:27:21;;;;;;;;;3.33;2.00;;;;;9.63;50.02;101353.03;5040332;28;45389;-74
2023/03/27 00:29:47;;;;;;;;;2.67;1.00;;;;;9.58;49.99;101360.50;5041041;28;49906;-73
2023/03/27 00:32:12;;;;;;;;;1.67;1.67;;;;;9.51;50.54;101344.22;5047741;28;45457;-72
2023/03/27 00:34:38;;;;;;;;;0.33;0.33;;;;;9.62;50.19;101357.50;5055558;28;45752;-74
2023/03/27 00:37:04;;;;;;;;;1.00;1.00;;;;;9.55;50.51;101377.50;5047157;28;45526;-73
2023/03/27 00:39:30;;;;;;;;;2.67;2.67;;;;;9.34;50.85;101345.56;5037438;28;45989;-74
2023/03/27 00:41:55;;;;;;;;;3.67;2.67;;;;;9.33;50.25;101351.81;5039993;28;45610;-74
2023/03/27 00:44:27;;;;;;;;;2.33;2.33;;;;;9.43;50.49;101384.66;5055167;28;45282;-73
2023/03/27 00:46:55;;;;;;;;;3.00;2.00;;;;;8.83;50.38;101285.03;5043684;28;45507;-73
2023/03/27 00:49:22;;;;;;;;;2.67;1.00;;;;;9.53;50.50;101394.53;5030546;28;48245;-73
2023/03/27 00:51:48;;;;;;;;;1.33;1.00;;;;;9.57;50.77;101402.13;5056036;28;45591;-74
2023/03/27 00:54:20;;;;;;;;;2.33;2.33;;;;;9.53;50.40;101410.44;5053467;28;45514;-72
2023/03/27 00:56:48;;;;;;;;;4.00;1.00;;;;;8.99;50.07;101319.13;5038050;28;45456;-74
2023/03/27 00:59:17;;;;;;;;;2.00;2.00;;;;;8.77;50.30;101277.53;5057149;28;45754;-73
2023/03/27 01:01:44;;;;;;;;;2.00;0.67;;;;;9.53;49.82;101410.44;5055700;28;45432;-74
2023/03/27 01:04:10;;;;;;;;;3.33;2.67;;;;;9.33;50.35;101394.28;5055591;28;45448;-73
2023/03/27 01:06:36;;;;;;;;;2.33;0.33;;;;;8.59;49.70;101296.66;5053275;28;45568;-73
2023/03/27 01:09:03;;;;;;;;;3.00;1.33;;;;;9.23;50.46;101422.50;5056756;28;45692;-73
2023/03/27 01:11:34;;;;;;;;;0.67;0.67;;;;;9.20;50.69;101425.38;5054933;28;45539;-72
2023/03/27 01:14:47;;;;;;;;;3.67;1.67;;;;;9.21;50.81;101427.09;5038964;28;45429;-71
2023/03/27 01:17:42;;;;;;;;;1.33;1.00;;;;;9.31;50.39;101430.72;5055197;28;45510;-74
2023/03/27 01:20:31;;;;;;;;;3.00;1.00;;;;;9.32;50.58;101437.72;5047941;28;45708;-72
2023/03/27 01:23:26;;;;;;;;;1.00;1.00;;;;;9.33;50.61;101452.66;5055741;28;45721;-73
2023/03/27 01:26:22;;;;;;;;;1.67;1.67;;;;;8.77;51.03;101399.50;5039601;28;45544;-73
2023/03/27 01:28:48;;;;;;;;;3.33;2.00;;;;;9.16;51.35;101461.06;5044951;28;45569;-72
2023/03/27 01:31:41;;;;;;;;;2.00;2.00;;;;;9.14;51.31;101460.34;5054624;28;45627;-71
2023/03/27 01:34:27;;;;;;;;;2.00;2.00;;;;;8.30;51.53;101323.56;5036343;28;45302;-72
2023/03/27 01:37:23;;;;;;;;;2.67;1.67;;;;;9.11;51.51;101465.88;5037107;28;45511;-74
2023/03/27 01:40:18;;;;;;;;;1.33;1.00;;;;;9.07;51.88;101472.41;5020821;28;45486;-73
2023/03/27 01:42:49;;;;;;;;;2.00;2.00;;;;;8.84;51.96;101432.56;5039143;28;47631;-72
2023/03/27 01:45:41;;;;;;;;;1.00;1.00;;;;;8.88;52.58;101457.03;5056167;28;45460;-72
2023/03/27 01:48:16;;;;;;;;;5.33;2.00;;;;;8.02;53.05;101314.19;5051690;28;45503;-71
2023/03/27 01:50:56;;;;;;;;;5.33;2.00;;;;;8.49;53.05;101403.38;5037922;28;45528;-74
2023/03/27 01:53:33;;;;;;;;;0.67;0.67;;;;;8.61;53.46;101433.44;5044864;28;46068;-73
2023/03/27 01:56:09;;;;;;;;;2.00;2.00;;;;;8.50;53.52;101425.44;5039510;28;45429;-72
2023/03/27 01:58:40;;;;;;;;;2.00;2.00;;;;;8.82;53.70;101474.25;5051795;28;45375;-74
2023/03/27 02:01:08;;;;;;;;;1.33;1.33;;;;;8.92;53.89;101500.91;5053629;28;45360;-74
2023/03/27 02:03:45;;;;;;;;;1.67;1.67;;;;;8.72;54.05;101452.03;5022097;28;47598;-73
2023/03/27 02:06:16;;;;;;;;;2.67;2.00;;;;;8.45;54.07;101411.69;5043240;28;45436;-71
2023/03/27 02:08:45;;;;;;;;;3.00;3.00;;;;;8.59;54.45;101451.25;5052061;28;45318;-73
2023/03/27 02:11:11;;;;;;;;;4.33;2.00;;;;;8.45;54.28;101432.88;5041311;28;45782;-72
2023/03/27 02:13:43;;;;;;;;;1.00;1.00;;;;;8.94;54.35;101508.75;5054711;28;45592;-74
2023/03/27 02:16:13;;;;;;;;;4.00;2.67;;;;;8.69;54.78;101473.47;5057500;28;45305;-82
2023/03/27 02:18:46;;;;;;;;;3.67;1.33;;;;;8.69;54.58;101456.72;5059214;28;45254;-73
2023/03/27 02:21:13;;;;;;;;;3.67;3.67;;;;;8.43;54.33;101427.69;5054512;28;45364;-74
2023/03/27 02:23:39;;;;;;;;;2.00;2.00;;;;;8.44;54.78;101436.50;5042982;28;45726;-73
2023/03/27 02:26:05;;;;;;;;;1.00;1.00;;;;;8.99;54.25;101522.50;5044036;28;45515;-74
2023/03/27 02:28:48;;;;;;;;;3.00;2.00;;;;;8.91;54.50;101506.34;5051151;28;45274;-72
2023/03/27 02:31:22;;;;;;;;;1.00;1.00;;;;;9.06;54.35;101535.22;5046556;28;45287;-72
2023/03/27 02:34:11;;;;;;;;;2.00;2.00;;;;;9.02;54.56;101530.25;5059104;28;46223;-76
2023/03/27 02:36:52;;;;;;;;;3.33;2.33;;;;;8.91;54.46;101519.59;5038588;28;46381;-73
2023/03/27 02:39:17;;;;;;;;;2.33;2.33;;;;;9.06;54.42;101545.81;5058483;28;45402;-71
2023/03/27 02:42:08;;;;;;;;;2.00;2.00;;;;;8.12;54.21;101376.09;5058097;28;45447;-73
2023/03/27 02:44:39;;;;;;;;;1.00;1.00;;;;;9.12;54.42;101539.19;5041030;28;47767;-71
2023/03/27 02:47:08;;;;;;;;;5.00;3.33;;;;;8.98;54.35;101542.03;5053269;28;46028;-72
2023/03/27 02:49:40;;;;;;;;;2.67;2.00;;;;;9.03;54.47;101556.66;5052626;28;45517;-73
2023/03/27 02:52:13;;;;;;;;;1.67;1.00;;;;;8.81;54.53;101499.06;5057285;28;45322;-72
2023/03/27 02:54:47;;;;;;;;;4.00;2.00;;;;;9.10;54.38;101543.78;5058985;28;46226;-73
2023/03/27 02:57:19;;;;;;;;;3.00;2.00;;;;;8.81;53.82;101499.06;5036344;28;45697;-75
2023/03/27 02:59:51;;;;;;;;;3.67;2.33;;;;;8.71;54.13;101466.25;5040265;28;45400;-72
2023/03/27 03:02:23;;;;;;;;;1.00;1.00;;;;;8.70;53.60;101479.59;5052748;28;45719;-74
2023/03/27 03:05:05;;;;;;;;;2.33;2.00;;;;;9.10;54.35;101557.88;5057302;28;45890;-72
2023/03/27 03:07:33;;;;;;;;;2.00;1.00;;;;;8.98;53.54;101561.44;5056137;28;45275;-73
2023/03/27 03:09:59;;;;;;;;;2.67;2.00;;;;;9.01;53.76;101579.81;5057155;28;45271;-74
2023/03/27 03:12:24;;;;;;;;;1.67;1.67;;;;;8.48;53.97;101485.66;5039934;28;45440;-72
2023/03/27 03:14:50;;;;;;;;;1.00;1.00;;;;;9.06;54.19;101571.50;5045738;28;45569;-73
2023/03/27 03:17:16;;;;;;;;;0.00;0.00;;;;;8.87;53.23;101542.84;5056246;28;45320;-73
2023/03/27 03:19:41;;;;;;;;;2.00;0.00;;;;;8.95;53.58;101574.09;5058871;28;45483;-71
2023/03/27 03:22:07;;;;;;;;;3.33;1.00;;;;;8.97;53.86;101593.38;5058150;28;45963;-76
2023/03/27 03:24:34;;;;;;;;;1.33;0.00;;;;;8.46;53.83;101511.41;5050165;28;46397;-72
2023/03/27 03:27:01;;;;;;;;;1.67;1.33;;;;;7.76;54.12;101439.63;5034390;28;46064;-73
2023/03/27 03:29:34;;;;;;;;;4.33;2.67;;;;;8.44;55.36;101569.84;5042708;28;46211;-73
2023/03/27 03:31:59;;;;;;;;;1.67;1.33;;;;;8.46;55.02;101572.38;5053525;28;45573;-74
2023/03/27 03:34:26;;;;;;;;;0.67;0.67;;;;;8.60;54.93;101596.06;5056757;28;46764;-74
2023/03/27 03:36:54;;;;;;;;;2.00;2.00;;;;;8.57;54.81;101593.63;5056683;28;45483;-72
2023/03/27 03:39:20;;;;;;;;;4.00;2.00;;;;;8.64;55.12;101605.50;5036249;28;45357;-72
2023/03/27 03:41:45;;;;;;;;;2.00;1.00;;;;;8.62;55.16;101606.56;5049398;28;45516;-74
2023/03/27 03:44:10;;;;;;;;;0.33;0.33;;;;;8.65;55.16;101604.53;5051133;28;45932;-73
2023/03/27 03:46:36;;;;;;;;;0.67;0.67;;;;;8.21;54.40;101539.66;5048582;28;45271;-75
2023/03/27 03:49:03;;;;;;;;;6.33;2.00;;;;;8.54;54.87;101602.66;5057325;28;45403;-73
2023/03/27 03:51:30;;;;;;;;;2.00;2.00;;;;;8.63;54.52;101614.41;5048993;28;45580;-74
2023/03/27 03:53:56;;;;;;;;;3.00;2.00;;;;;8.30;54.82;101577.03;5047462;28;47277;-73
2023/03/27 03:56:21;;;;;;;;;1.33;1.00;;;;;8.43;54.83;101596.44;5053986;28;45557;-74
2023/03/27 03:58:46;;;;;;;;;2.67;2.00;;;;;8.65;55.01;101631.06;5031012;28;45465;-73
2023/03/27 04:01:12;;;;;;;;;4.00;2.00;;;;;8.55;55.25;101622.06;5055650;28;45191;-74
2023/03/27 04:03:37;;;;;;;;;3.00;1.33;;;;;8.64;55.10;101639.13;5057752;28;46507;-74
2023/03/27 04:06:04;;;;;;;;;3.00;2.00;;;;;8.70;55.37;101638.66;5037606;28;45302;-73
2023/03/27 04:08:30;;;;;;;;;2.67;1.00;;;;;8.67;55.44;101654.81;5048060;28;45490;-74
2023/03/27 04:10:56;;;;;;;;;2.00;0.00;;;;;8.66;55.27;101664.56;5055886;28;45596;-73
2023/03/27 04:13:22;;;;;;;;;1.67;1.00;;;;;7.79;55.57;101502.94;5057415;28;46480;-74
2023/03/27 04:15:48;;;;;;;;;1.33;1.33;;;;;8.76;54.94;101664.72;5052827;28;45575;-74
2023/03/27 04:18:18;;;;;;;;;2.00;2.00;;;;;8.28;55.01;101584.25;5056623;28;45468;-75
2023/03/27 04:20:48;;;;;;;;;2.00;1.00;;;;;8.72;54.94;101664.13;5038047;28;45354;-73
2023/03/27 04:23:17;;;;;;;;;0.67;0.67;;;;;7.81;54.73;101501.06;5038382;28;45986;-74
2023/03/27 04:25:45;;;;;;;;;1.00;1.00;;;;;8.34;54.63;101589.13;5053868;28;45424;-73
2023/03/27 04:28:15;;;;;;;;;3.00;2.00;;;;;8.69;54.17;101642.28;5056316;28;45480;-74
2023/03/27 04:30:44;;;;;;;;;1.67;1.67;;;;;6.95;53.99;101353.59;5039191;28;45484;-75
2023/03/27 04:33:17;;;;;;;;;2.00;2.00;;;;;9.01;53.78;101698.28;5040844;28;45585;-73
2023/03/27 04:35:45;;;;;;;;;1.67;1.00;;;;;9.06;54.11;101698.81;5020052;28;46236;-73
2023/03/27 04:38:12;;;;;;;;;1.67;1.00;;;;;8.09;53.82;101547.63;5048450;28;45356;-73
2023/03/27 04:40:37;;;;;;;;;2.00;1.00;;;;;8.93;53.92;101701.50;5037440;28;45528;-75
2023/03/27 04:43:03;;;;;;;;;3.00;3.00;;;;;8.84;54.31;101696.88;5046092;28;46463;-72
2023/03/27 04:45:29;;;;;;;;;1.00;1.00;;;;;8.91;54.16;101711.38;5041111;28;45278;-74
2023/03/27 04:47:54;;;;;;;;;0.67;0.67;;;;;8.73;53.86;101697.63;5046996;28;45586;-74
2023/03/27 04:50:19;;;;;;;;;1.00;1.00;;;;;8.74;54.57;101704.63;5028481;28;45411;-72
2023/03/27 04:52:48;;;;;;;;;2.67;1.33;;;;;8.83;54.13;101721.69;5053121;28;47865;-73
2023/03/27 04:55:14;;;;;;;;;1.33;1.00;;;;;8.59;54.65;101688.94;5053638;28;45778;-74
2023/03/27 04:57:45;;;;;;;;;3.00;2.00;;;;;8.65;54.38;101707.94;5053667;28;45483;-72
2023/03/27 05:00:18;;;;;;;;;1.00;1.00;;;;;8.86;54.40;101720.63;5056485;28;45344;-74
2023/03/27 05:02:47;;;;;;;;;5.00;2.67;;;;;8.66;53.91;101690.22;5053810;28;46619;-73
2023/03/27 05:05:15;;;;;;;;;4.67;2.33;;;;;8.87;54.16;101732.94;5035198;28;45471;-72
2023/03/27 05:07:44;;;;;;;;;1.00;1.00;;;;;8.10;54.03;101592.53;5051597;28;45673;-73
2023/03/27 05:10:10;;;;;;;;;1.00;1.00;;;;;8.98;54.00;101733.00;5054655;28;45595;-73
2023/03/27 05:12:35;;;;;;;;;1.67;1.00;;;;;8.93;53.60;101735.97;5045359;28;45764;-72
2023/03/27 05:15:04;;;;;;;;;3.67;1.33;;;;;8.93;53.90;101748.38;5077146;28;45342;-75
2023/03/27 05:17:31;;;;;;;;;4.33;2.33;;;;;8.69;53.78;101717.34;5053845;28;45672;-74
2023/03/27 05:19:56;;;;;;;;;3.00;0.67;;;;;8.63;54.09;101687.78;5053890;28;45594;-74
2023/03/27 05:22:22;;;;;;;;;1.33;1.00;;;;;9.03;53.93;101758.25;5056624;28;46341;-74
2023/03/27 05:24:47;;;;;;;;;2.00;1.00;;;;;8.70;54.13;101719.06;5056401;28;45411;-76
2023/03/27 05:27:14;;;;;;;;;1.33;1.33;;;;;8.94;53.92;101758.88;5025846;28;45417;-74
2023/03/27 05:29:39;;;;;;;;;6.33;1.00;;;;;8.60;53.93;101702.09;5044665;28;45510;-74
2023/03/27 05:32:05;;;;;;;;;4.33;2.00;;;;;8.58;53.99;101688.09;5051493;28;45661;-74
2023/03/27 05:34:30;;;;;;;;;1.67;1.67;;;;;8.95;53.80;101763.22;5032496;28;45426;-74
2023/03/27 05:36:56;;;;;;;;;2.33;2.33;;;;;8.62;54.10;101717.91;5043442;28;45298;-74
2023/03/27 05:39:24;;;;;;;;;1.33;1.00;;;;;8.02;53.97;101621.34;5035924;28;45601;-82
2023/03/27 05:41:49;;;;;;;;;2.00;2.00;;;;;8.94;54.37;101780.09;5041409;28;45597;-72
2023/03/27 05:44:15;;;;;;;;;3.00;1.67;;;;;8.92;54.23;101789.13;5048642;28;45353;-73
2023/03/27 05:46:41;;;;;;;;;4.00;3.00;;;;;8.83;54.46;101759.66;5037351;28;45629;-77
2023/03/27 05:49:06;;;;;;;;;0.00;0.00;;;;;9.02;54.54;101776.94;5021851;28;45512;-74
2023/03/27 05:51:33;;;;;;;;;2.67;2.67;;;;;9.07;54.40;101790.72;5050753;28;46548;-76
2023/03/27 05:53:58;;;;;;;;;1.00;1.00;;;;;8.61;54.24;101706.47;5025311;28;45376;-72
2023/03/27 05:56:23;;;;;;;;;2.00;2.00;;;;;8.34;54.03;101658.00;5050201;28;47241;-74
2023/03/27 05:58:49;;;;;;;;;4.33;2.33;;;;;8.93;54.14;101764.31;5057443;28;45432;-75
2023/03/27 06:01:14;;;;;;;;;1.00;0.67;;;;;8.13;53.92;101634.69;5052883;28;45965;-75
2023/03/27 06:03:39;;;;;;;;;3.00;2.00;;;;;6.97;54.07;101448.63;5042623;28;46710;-73
2023/03/27 06:06:07;;;;;;;;;2.33;2.33;;;;;8.86;54.30;101777.16;5045317;28;47651;-74
2023/03/27 06:08:33;;;;;;;;;2.00;1.33;;;;;9.01;54.83;101804.38;5033127;28;45532;-75
2023/03/27 06:10:59;;;;;;;;;5.67;1.67;;;;;8.71;54.27;101747.25;5055951;28;46805;-74
2023/03/27 06:13:24;;;;;;;;;1.00;1.00;;;;;9.08;54.41;101809.16;5065056;28;45509;-75
2023/03/27 06:15:52;;;;;;;;;4.00;3.33;;;;;9.23;54.51;101820.50;5055896;28;46183;-76
2023/03/27 06:18:18;;;;;;;;;7.67;2.67;;;;;8.93;54.19;101783.72;5054564;28;45574;-77
2023/03/27 06:20:43;;;;;;;;;2.33;2.00;;;;;8.11;54.73;101656.94;5038856;28;47328;-73
2023/03/27 06:23:09;;;;;;;;;1.00;1.00;;;;;8.21;54.89;101669.44;5025638;28;46374;-72
2023/03/27 06:25:37;;;;;;;;;3.33;1.00;;;;;8.94;55.07;101800.47;5056876;28;45453;-82
2023/03/27 06:28:07;;;;;;;;;2.67;2.00;;;;;9.17;54.89;101828.03;5039236;28;45403;-74
2023/03/27 06:30:32;;;;;;;;;5.67;4.00;;;;;9.13;55.23;101827.41;5045986;28;45844;-75
2023/03/27 06:32:58;;;;;;;;;3.00;2.33;;;;;9.26;54.52;101849.47;5058501;28;45347;-76
2023/03/27 06:35:29;;;;;;;;;17.33;16.33;;;;;9.31;54.76;101839.38;5051035;28;45559;-75
2023/03/27 06:37:57;;;;;;;;;37.33;30.33;;;;;9.32;54.96;101854.34;5042834;28;45278;-76
2023/03/27 06:40:25;;;;;;;;;4.00;1.67;;;;;9.15;54.97;101825.50;5059763;28;45684;-74
2023/03/27 06:42:54;;;;;;;;;2.00;2.00;;;;;9.41;54.53;101840.44;5053192;28;45521;-72
2023/03/27 06:45:22;;;;;;;;;4.00;3.00;;;;;9.30;54.78;101856.25;5042054;28;45576;-72
2023/03/27 06:47:49;;;;;;;;;2.33;1.33;;;;;9.34;54.78;101860.38;5045692;28;45521;-71
2023/03/27 06:50:15;;;;;;;;;5.00;4.33;;;;;9.09;54.58;101791.44;5065091;28;47066;-71
2023/03/27 06:52:40;;;;;;;;;4.00;2.00;;;;;9.45;53.95;101855.16;5049410;28;46200;-70
2023/03/27 06:55:07;;;;;;;;;4.33;2.00;;;;;9.60;53.71;101863.81;5070090;28;45231;-72
2023/03/27 06:57:32;;;;;;;;;3.33;3.00;;;;;9.67;53.62;101874.88;5053643;28;45592;-72
2023/03/27 06:59:58;;;;;;;;;2.00;2.00;;;;;9.58;53.69;101875.50;5055484;28;46868;-73
2023/03/27 07:02:23;;;;;;;;;6.00;3.00;;;;;9.24;53.91;101813.41;5043082;28;45398;-73
2023/03/27 07:04:48;;;;;;;;;1.00;1.00;;;;;9.55;53.76;101871.28;5052770;28;45548;-73
2023/03/27 07:07:14;;;;;;;;;2.67;2.33;;;;;9.52;53.69;101887.44;5041415;28;45344;-72
2023/03/27 07:09:40;;;;;;;;;3.00;3.00;;;;;9.45;53.79;101855.16;5054414;28;46601;-74
2023/03/27 07:12:07;;;;;;;;;3.67;2.00;;;;;9.62;53.71;101869.91;5055836;28;45523;-73
2023/03/27 07:14:33;;;;;;;;;2.00;2.00;;;;;8.94;53.68;101731.53;5055784;28;45495;-73
2023/03/27 07:16:58;;;;;;;;;3.00;3.00;;;;;10.02;53.23;101883.78;5054833;28;45659;-72
2023/03/27 07:19:24;;;;;;;;;7.33;6.67;;;;;10.16;52.49;101893.38;5030768;28;45543;-72
2023/03/27 07:21:49;;;;;;;;;6.33;5.33;;;;;10.25;52.80;101891.91;5036730;28;45295;-72
2023/03/27 07:24:14;;;;;;;;;2.00;2.00;;;;;10.16;52.04;101868.63;5059598;28;45575;-73
2023/03/27 07:26:40;;;;;;;;;6.33;5.00;;;;;10.27;52.03;101866.91;5049404;28;45499;-71
2023/03/27 07:29:09;;;;;;;;;4.00;2.67;;;;;10.71;52.02;101893.75;5063406;28;46067;-74
2023/03/27 07:31:35;;;;;;;;;3.67;3.67;;;;;11.03;50.85;101809.66;5079040;28;45453;-73
2023/03/27 07:34:01;;;;;;;;;3.00;3.00;;;;;12.51;45.41;101889.97;5078597;28;45410;-72
2023/03/27 07:36:28;;;;;;;;;5.33;4.00;;;;;11.82;45.07;101707.34;5051450;28;45456;-72
2023/03/27 07:38:53;;;;;;;;;10.00;7.00;;;;;13.38;43.46;101830.78;5069167;28;46554;-72
2023/03/27 07:41:19;;;;;;;;;2.67;2.67;;;;;14.53;40.65;101879.22;5058733;28;45428;-74
2023/03/27 07:43:45;;;;;;;;;1.33;1.33;;;;;14.23;37.85;101675.09;5040270;28;45424;-72
2023/03/27 07:46:11;;;;;;;;;2.00;1.00;;;;;16.21;35.16;101869.22;5039180;28;45253;-73
2023/03/27 07:48:37;;;;;;;;;2.33;2.33;;;;;17.08;33.19;101868.44;5048338;28;48503;-72
2023/03/27 07:51:04;;;;;;;;;2.67;2.67;;;;;17.01;30.42;101749.16;5039900;28;45557;-72
2023/03/27 07:53:30;;;;;;;;;2.00;2.00;;;;;17.83;29.83;101799.53;5058263;28;45243;-73
2023/03/27 07:55:57;;;;;;;;;1.67;1.67;;;;;18.70;28.42;101883.38;5040255;28;45527;-71
2023/03/27 07:58:24;;;;;;;;;2.00;2.00;;;;;18.62;27.58;101811.47;5038843;28;46171;-72
2023/03/27 08:00:51;;;;;;;;;1.67;1.67;;;;;19.43;27.27;101864.34;5037503;28;45464;-72
2023/03/27 08:03:18;;;;;;;;;3.00;2.00;;;;;20.05;26.89;101851.72;5027282;28;45644;-73
2023/03/27 08:05:44;;;;;;;;;1.00;1.00;;;;;20.93;24.03;101897.09;5061587;28;45442;-74
2023/03/27 08:08:11;;;;;;;;;1.00;1.00;;;;;21.49;22.52;101892.13;5064498;28;45928;-71
2023/03/27 08:10:36;;;;;;;;;1.00;1.00;;;;;21.68;22.10;101870.94;5062862;28;45539;-72
2023/03/27 08:13:02;;;;;;;;;0.25;0.25;;;;;22.20;22.00;101907.78;5062822;28;45481;-73
2023/03/27 08:15:28;;;;;;;;;0.50;0.50;;;;;22.37;21.27;101874.81;5074373;28;45388;-73
2023/03/27 08:17:55;;;;;;;;;2.00;0.33;;;;;22.19;20.92;101893.41;5058773;28;45540;-74
2023/03/27 08:20:22;;;;;;;;;1.00;1.00;;;;;22.45;21.97;101882.00;5018895;28;45649;-71
2023/03/27 08:22:49;;;;;;;;;1.00;1.00;;;;;22.97;21.87;101875.34;5022679;28;45678;-73
2023/03/27 08:25:16;;;;;;;;;1.00;1.00;;;;;23.28;19.99;101896.63;5037287;28;45448;-73
2023/03/27 08:27:43;;;;;;;;;1.00;1.00;;;;;23.10;20.57;101910.72;5045425;28;47758;-70
2023/03/27 08:30:11;;;;;;;;;2.50;1.00;;;;;22.41;20.60;101850.88;5057386;28;45593;-69
2023/03/27 08:32:38;;;;;;;;;2.00;1.00;;;;;22.46;20.86;101886.38;5058249;28;45445;-74
2023/03/27 08:35:04;;;;;;;;;0.00;0.00;;;;;21.81;21.50;101933.34;5076237;28;45363;-73
2023/03/27 08:37:29;;;;;;;;;0.25;0.25;;;;;21.41;22.50;101924.69;5039552;28;45606;-74
2023/03/27 08:39:57;;;;;;;;;1.00;1.00;;;;;21.22;22.23;101925.19;5055724;28;45409;-73
2023/03/27 08:42:33;;;;;;;;;1.00;1.00;;;;;20.25;22.05;101891.75;5063162;28;45324;-73
2023/03/27 08:45:07;;;;;;;;;2.00;2.00;;;;;19.86;23.07;101929.63;5058168;28;45332;-73
2023/03/27 08:47:40;;;;;;;;;1.00;1.00;;;;;19.06;24.13;101830.78;5054316;28;45479;-71
2023/03/27 08:50:20;;;;;;;;;0.75;0.75;;;;;19.35;25.43;101958.75;5059315;28;45278;-76
2023/03/27 08:52:48;;;;;;;;;2.00;1.00;;;;;18.07;25.39;101932.41;5040575;28;45435;-75
2023/03/27 08:55:18;;;;;;;;;2.00;2.00;;;;;17.68;26.99;101970.59;5046099;28;45452;-75
2023/03/27 08:57:43;;;;;;;;;1.00;1.00;;;;;16.88;27.34;101924.22;5058327;28;46791;-74
2023/03/27 09:00:19;;;;;;;;;2.33;2.00;;;;;17.57;27.19;101982.44;5049869;28;45339;-75
2023/03/27 09:03:26;;;;;;;;;2.00;0.67;;;;;17.76;26.91;101983.25;5047150;28;45341;-74
2023/03/27 09:06:23;;;;;;;;;5.67;2.00;;;;;17.48;26.76;101996.00;5046177;28;45510;-74
2023/03/27 09:09:15;;;;;;;;;0.00;0.00;;;;;16.59;27.20;101862.69;5037364;28;46706;-73
2023/03/27 09:11:57;;;;;;;;;1.33;1.33;;;;;17.29;27.93;101994.38;4990141;28;46087;-75
2023/03/27 09:14:36;;;;;;;;;2.00;1.00;;;;;17.08;28.18;101997.41;5055987;28;45568;-74
2023/03/27 09:17:15;;;;;;;;;0.00;0.00;;;;;17.11;27.76;101919.16;5036071;28;45456;-73
2023/03/27 09:19:56;;;;;;;;;1.00;1.00;;;;;18.67;26.89;101986.09;5052290;28;46094;-72
2023/03/27 09:22:44;;;;;;;;;2.33;1.00;;;;;18.79;26.08;101990.97;5053387;28;45487;-74
2023/03/27 09:25:32;;;;;;;;;4.00;2.00;;;;;18.55;26.69;101999.81;5053595;28;45527;-75
2023/03/27 09:28:00;;;;;;;;;3.75;2.50;;;;;18.29;26.12;101904.88;5074999;28;45761;-77
2023/03/27 09:30:28;;;;;;;;;0.67;0.33;;;;;19.03;25.90;102003.63;5055048;28;45795;-73
2023/03/27 09:32:58;;;;;;;;;1.67;1.67;;;;;19.31;25.79;101987.91;5050316;28;45789;-75
2023/03/27 09:35:23;;;;;;;;;1.75;1.25;;;;;19.53;25.04;101953.13;5061878;28;45526;-76
2023/03/27 09:38:00;;;;;;;;;1.75;1.75;;;;;19.62;25.67;101977.28;5057031;28;45563;-75
2023/03/27 09:40:46;;;;;;;;;0.50;0.50;;;;;20.62;24.02;101985.53;5054136;28;47230;-78
2023/03/27 09:43:21;;;;;;;;;2.50;1.00;;;;;21.08;21.14;101947.69;5045980;28;45477;-76
2023/03/27 09:45:49;;;;;;;;;2.00;2.00;;;;;19.84;20.67;101972.13;5037455;28;45351;-77
2023/03/27 09:48:26;;;;;;;;;0.75;0.75;;;;;20.65;19.79;101950.06;5076263;28;45455;-77
2023/03/27 09:50:51;;;;;;;;;1.50;0.50;;;;;21.70;19.36;102025.88;5057287;28;45554;-75
2023/03/27 09:53:22;;;;;;;;;2.75;1.00;;;;;22.56;18.31;101965.47;5041115;28;45639;-76
2023/03/27 09:56:04;;;;;;;;;0.33;0.33;;;;;23.56;17.30;102033.16;5060345;28;45323;-76
2023/03/27 09:58:34;;;;;;;;;1.00;0.75;;;;;23.48;16.51;102030.59;5051250;28;45736;-77
2023/03/27 10:01:12;;;;;;;;;0.00;0.00;;;;;23.15;16.91;102024.03;5054414;28;46494;-75
2023/03/27 10:03:50;;;;;;;;;0.00;0.00;;;;;21.92;17.53;101864.34;5054055;28;45579;-76
2023/03/27 10:06:27;;;;;;;;;0.00;0.00;;;;;21.43;18.63;102006.53;5050282;28;45442;-75
2023/03/27 10:08:54;;;;;;;;;2.00;0.00;;;;;20.62;19.68;102028.78;5056704;28;45574;-74
2023/03/27 10:11:27;;;;;;;;;4.67;2.00;;;;;19.10;21.65;102031.56;5045119;28;47703;-75
2023/03/27 10:13:54;;;;;;;;;2.00;1.00;;;;;18.66;22.25;101992.47;5049010;28;45348;-75
2023/03/27 10:16:21;;;;;;;;;1.00;1.00;;;;;18.60;22.92;102039.72;5035793;28;45343;-75
2023/03/27 10:18:52;;;;;;;;;1.00;1.00;;;;;18.14;22.69;102054.56;5043443;28;45531;-76
2023/03/27 10:21:28;;;;;;;;;1.00;1.00;;;;;17.71;23.40;102016.00;5059674;28;46498;-76
2023/03/27 10:24:17;;;;;;;;;1.00;1.00;;;;;16.91;24.74;101985.69;5060762;28;45487;-75
2023/03/27 10:26:47;;;;;;;;;0.67;0.67;;;;;15.83;25.71;101964.22;5049727;28;45571;-74
2023/03/27 10:29:29;;;;;;;;;2.67;1.00;;;;;15.53;26.27;101967.97;5058438;28;45226;-74
2023/03/27 10:31:57;;;;;;;;;1.00;1.00;;;;;15.74;26.01;102043.69;5058982;28;45741;-75
2023/03/27 10:34:33;;;;;;;;;2.00;1.33;;;;;15.55;27.10;102038.34;5052588;28;45372;-74
2023/03/27 10:37:02;;;;;;;;;1.00;1.00;;;;;15.61;27.81;102040.47;5060108;28;45445;-74
2023/03/27 10:39:33;;;;;;;;;0.67;0.67;;;;;15.41;27.69;102020.03;5051082;28;45529;-74
2023/03/27 10:42:05;;;;;;;;;3.00;1.33;;;;;14.87;28.30;101959.94;5049218;28;46392;-74
2023/03/27 10:44:30;;;;;;;;;3.00;2.00;;;;;15.15;28.34;101998.38;5061914;28;45410;-75
2023/03/27 10:46:56;;;;;;;;;1.67;0.67;;;;;15.29;27.89;102022.06;5063938;28;45338;-76
2023/03/27 10:49:42;;;;;;;;;0.67;0.67;;;;;15.42;27.63;102054.75;5035666;28;45513;-73
2023/03/27 10:52:17;;;;;;;;;2.67;1.67;;;;;15.27;28.03;102061.53;5071182;28;45803;-70
2023/03/27 10:55:01;;;;;;;;;0.00;0.00;;;;;15.15;28.13;102058.16;5066261;28;45368;-75
2023/03/27 10:57:36;;;;;;;;;2.00;2.00;;;;;15.14;28.38;102055.63;5064230;28;45446;-71
2023/03/27 11:00:31;;;;;;;;;5.00;3.67;;;;;14.85;28.93;102032.38;5051431;28;45552;-73
2023/03/27 11:03:38;;;;;;;;;3.67;2.00;;;;;15.14;28.98;102072.53;5070885;28;46615;-72
2023/03/27 11:06:10;;;;;;;;;1.33;1.33;;;;;14.74;29.03;102021.78;5019115;28;45690;-72
2023/03/27 11:08:51;;;;;;;;;1.00;1.00;;;;;14.84;29.71;102060.13;5036610;28;45470;-71
2023/03/27 11:11:26;;;;;;;;;3.00;3.00;;;;;14.02;29.55;101912.41;5037061;28;45538;-71
2023/03/27 11:13:53;;;;;;;;;1.00;1.00;;;;;14.24;29.72;101938.06;5075108;28;45306;-75
2023/03/27 11:16:43;;;;;;;;;1.33;1.33;;;;;14.96;29.55;102073.38;5057920;28;45494;-73
2023/03/27 11:19:08;;;;;;;;;3.67;1.67;;;;;14.65;29.41;102011.94;5061087;28;45364;-74
2023/03/27 11:21:44;;;;;;;;;3.00;2.67;;;;;14.91;29.72;102068.44;5072972;28;45382;-74
2023/03/27 11:24:32;;;;;;;;;4.00;4.00;;;;;14.62;29.94;102028.28;5040120;28;48236;-75
2023/03/27 11:27:26;;;;;;;;;6.00;4.67;;;;;13.96;29.62;101945.03;5059269;28;45444;-74
2023/03/27 11:30:04;;;;;;;;;2.00;2.00;;;;;14.65;30.14;102091.38;5059144;28;45522;-76
2023/03/27 11:33:12;;;;;;;;;1.67;1.67;;;;;13.70;30.64;101945.50;5057155;28;45289;-73
2023/03/27 11:35:49;;;;;;;;;2.00;2.00;;;;;14.18;31.25;102093.72;5056825;28;46512;-73
2023/03/27 11:38:22;;;;;;;;;1.33;1.33;;;;;13.66;32.24;102051.00;5040532;28;45314;-74
2023/03/27 11:40:51;;;;;;;;;3.50;1.00;;;;;13.22;32.36;101990.69;5039139;28;45506;-74
2023/03/27 11:43:18;;;;;;;;;3.00;1.00;;;;;13.27;32.32;102035.69;5057348;28;45397;-75
2023/03/27 11:45:44;;;;;;;;;1.33;1.33;;;;;13.49;31.95;102062.28;5040996;28;48536;-73